Date,TemperatureHighF,TemperatureAvgF,TemperatureLowF,DewpointHighF,DewpointAvgF,DewpointLowF,HumidityHigh,HumidityAvg,HumidityLow,PressureMaxIn,PressureMinIn,WindSpeedMaxMPH,WindSpeedAvgMPH,GustSpeedMaxMPH,PrecipitationSumIn
2013-1-1,21,14,8,14,8,5,86,78,59,30.30,30.17,15,5,17,0.00
2013-1-2,32,19,7,24,13,3,86,78,64,30.26,30.12,14,5,20,0.00
2013-1-3,29,24,13,26,20,10,93,85,70,30.33,30.14,14,7,20,0.00
2013-1-4,34,22,11,25,18,8,91,84,69,30.32,30.22,16,7,24,0.00
2013-1-5,36,29,18,34,27,16,96,92,78,30.27,29.97,15,7,25,0.05
2013-1-6,34,23,16,33,20,13,95,88,81,30.36,29.96,16,7,22,0.00
2013-1-7,41,27,16,29,23,13,93,84,60,30.36,30.12,19,8,26,0.00
2013-1-8,44,34,26,33,29,23,92,83,63,30.16,30.04,14,7,20,0.00
2013-1-9,46,37,28,36,30,24,91,77,53,30.51,30.03,18,7,26,0.00
2013-1-10,42,35,25,40,30,22,98,83,58,30.50,29.86,15,6,21,0.60
2013-1-11,50,46,41,50,46,40,99,98,92,29.86,29.67,15,8,21,0.38
2013-1-12,50,37,24,48,34,23,94,88,81,30.00,29.68,16,8,23,0.00
2013-1-13,24,18,11,22,14,7,94,86,79,30.30,29.90,14,7,21,0.00
2013-1-14,22,14,8,14,9,6,89,81,65,30.50,30.30,8,2,12,0.00
2013-1-15,27,19,12,19,14,8,87,79,65,30.49,30.17,8,1,9,0.03
2013-1-16,35,26,13,32,20,10,88,81,67,30.17,29.89,19,6,26,0.00
2013-1-17,35,25,19,32,19,13,91,78,60,30.44,30.11,12,4,18,0.00
2013-1-18,41,32,19,33,26,15,89,80,70,30.46,29.94,21,9,28,0.06
2013-1-19,47,39,24,40,32,15,84,77,59,30.01,29.75,25,10,34,0.00
2013-1-20,24,16,12,15,8,5,78,70,59,30.35,30.01,19,7,26,0.00
2013-1-21,12,8,4,9,0,-4,88,72,57,30.35,30.21,18,9,25,0.00
2013-1-22,13,9,0,2,0,-6,82,67,60,30.47,30.35,13,6,20,0.00
2013-1-23,23,15,10,15,9,2,87,74,65,30.43,30.17,23,6,29,0.00
2013-1-24,20,13,4,11,4,-2,76,68,58,30.69,30.38,17,7,23,0.00
2013-1-25,32,23,16,22,16,8,92,76,61,30.38,30.01,16,7,24,0.01
2013-1-26,25,18,8,18,12,4,86,75,59,30.44,30.25,8,3,13,0.00
2013-1-27,31,27,24,30,22,17,94,82,75,30.39,30.09,18,9,24,0.00
2013-1-28,47,42,38,46,42,38,99,99,98,29.96,29.75,12,4,16,0.91
2013-1-29,62,54,42,60,53,42,100,98,92,29.75,29.38,16,6,23,0.85
2013-1-30,42,31,17,42,30,13,99,96,85,29.71,29.23,18,9,25,0.28
2013-1-31,17,10,2,14,6,-3,89,83,77,30.28,29.71,20,12,32,0.00
2013-2-1,16,6,-2,14,2,-6,91,80,72,30.45,30.23,14,7,21,0.00
2013-2-2,24,16,8,23,13,5,95,87,77,30.23,30.07,19,6,23,0.00
2013-2-3,23,19,11,19,15,8,94,86,77,30.11,30.00,16,5,24,0.01
2013-2-4,28,21,11,24,18,7,92,88,86,30.04,29.86,20,7,22,0.00
2013-2-5,32,24,11,29,21,7,93,88,81,30.13,29.85,14,6,22,0.01
2013-2-6,40,30,18,34,26,15,92,85,71,30.24,30.08,15,6,21,0.01
2013-2-7,34,33,29,33,32,28,99,97,90,30.09,29.88,15,5,21,0.62
2013-2-8,29,23,15,28,21,14,98,92,87,30.42,30.03,14,6,17,0.01
2013-2-9,33,28,22,29,26,21,96,92,86,30.43,30.07,21,8,28,0.03
2013-2-10,45,38,30,44,37,28,99,95,77,30.08,29.47,25,11,36,0.36
2013-2-11,40,32,27,34,26,22,86,80,77,30.09,29.53,30,15,46,0.00
2013-2-12,32,27,24,26,23,21,92,85,75,30.15,29.94,15,5,23,0.00
2013-2-13,42,33,23,35,29,22,95,88,71,29.94,29.75,10,4,16,0.01
2013-2-14,41,35,32,34,31,27,93,84,65,30.00,29.66,18,7,26,0.00
2013-2-15,32,26,18,30,19,11,94,74,54,30.23,30.01,16,7,21,0.00
2013-2-16,24,17,12,14,10,7,83,74,60,30.24,30.16,14,5,21,0.00
2013-2-17,32,22,9,24,14,5,84,74,55,30.25,29.97,14,6,18,0.00
2013-2-18,51,36,23,44,32,20,97,85,69,29.97,29.45,24,11,32,0.40
2013-2-19,23,14,8,20,10,3,90,83,79,30.30,29.66,23,13,34,0.00
2013-2-20,20,12,5,14,8,0,90,82,78,30.45,30.29,12,5,18,0.00
2013-2-21,29,22,12,26,20,10,95,90,87,30.44,29.97,22,7,31,0.00
2013-2-22,34,27,23,32,25,22,96,93,88,29.96,29.82,16,8,25,0.08
2013-2-23,28,24,19,23,20,16,91,86,77,30.01,29.95,13,6,20,0.02
2013-2-24,35,25,13,26,19,-100,94,81,63,30.16,30.01,5,2,9,0.00
2013-2-25,38,36,28,32,30,25,89,80,71,30.17,29.95,13,6,20,0.00
2013-2-26,35,33,31,31,30,29,98,91,80,29.96,29.54,28,14,36,0.02
2013-2-27,33,31,29,32,30,28,98,96,92,29.79,29.58,13,7,15,0.10
2013-2-28,34,32,27,32,30,24,97,92,88,30.11,29.78,15,7,18,0.06
2013-3-1,27,24,23,24,22,18,92,88,82,30.26,30.10,24,14,28,0.00
2013-3-2,25,19,12,19,14,8,88,81,67,30.27,30.22,14,5,18,0.00
2013-3-3,31,19,8,18,12,6,92,76,53,30.22,30.13,6,1,7,0.00
2013-3-4,31,27,17,28,22,10,88,82,71,30.15,29.97,17,8,23,0.00
2013-3-5,33,30,25,32,29,23,97,95,87,30.08,29.82,20,8,26,0.31
2013-3-6,28,26,24,25,24,22,95,91,87,30.31,30.08,14,9,24,0.00
2013-3-8,37,28,15,31,24,13,94,86,76,30.49,30.30,13,5,17,0.00
2013-3-9,40,36,30,37,33,27,94,90,86,30.30,29.83,18,8,23,0.09
2013-3-10,44,40,38,44,40,36,99,98,87,29.84,29.55,14,5,18,0.69
2013-3-11,41,34,31,40,34,28,99,98,91,29.85,29.58,16,6,24,0.05
2013-3-12,37,30,25,31,27,20,93,87,75,30.09,29.84,20,10,26,0.01
2013-3-13,33,27,22,22,19,15,86,74,50,30.37,30.09,16,7,22,0.00
2013-3-14,35,29,22,32,26,18,95,88,75,30.37,30.09,12,4,17,0.01
2013-3-15,39,34,29,36,32,28,98,93,85,30.10,29.74,12,3,15,0.01
2013-3-16,34,31,29,33,29,24,98,92,81,30.15,29.71,17,8,20,0.00
2013-3-17,34,30,25,30,25,19,87,81,73,30.23,29.97,19,8,25,0.00
2013-3-18,34,29,21,33,26,15,96,89,76,29.97,29.66,25,10,36,0.09
2013-3-19,32,23,16,22,16,10,81,74,62,30.16,29.86,24,14,33,0.00
2013-3-20,25,19,12,19,11,5,82,71,61,30.18,30.08,19,9,29,0.00
2013-3-21,31,21,12,21,14,8,89,74,57,30.13,30.05,9,3,13,0.00
2013-3-22,38,28,18,25,20,14,89,72,48,30.10,30.04,8,3,12,0.00
2013-3-23,41,34,25,29,26,22,91,72,54,30.15,30.01,12,5,15,0.00
2013-3-24,35,31,28,30,28,26,96,90,79,30.04,29.70,22,12,26,0.02
2013-3-25,35,31,27,30,27,23,92,84,78,30.13,29.78,24,10,26,0.00
2013-3-26,40,34,31,29,27,25,87,77,62,30.30,30.13,9,4,13,0.00
2013-3-27,43,36,31,31,27,22,86,72,44,30.36,30.30,14,3,17,0.00
2013-3-28,49,38,28,35,28,22,84,68,45,30.39,30.28,9,2,12,0.01
2013-3-29,53,42,32,37,31,27,84,67,43,30.33,30.22,6,2,9,0.00
2013-3-30,57,44,33,44,36,25,91,71,56,30.25,29.85,19,6,29,0.00
2013-3-31,56,45,36,44,38,29,97,77,49,29.90,29.75,20,8,32,0.01
2013-4-1,41,35,28,29,24,17,75,64,43,30.23,29.90,15,5,22,0.00
2013-4-2,44,33,23,24,20,16,86,62,35,30.35,30.24,12,4,17,0.00
2013-4-3,47,35,24,24,21,16,80,58,33,30.48,30.33,9,4,12,0.00
2013-4-4,59,43,28,38,28,19,82,56,33,30.33,29.99,10,4,16,0.00
2013-4-5,53,43,32,36,29,21,87,61,34,30.22,30.03,17,7,25,0.00
2013-4-6,66,50,34,51,36,22,92,62,39,30.11,29.60,27,11,39,0.37
2013-4-7,62,49,38,48,42,36,93,77,52,29.94,29.66,16,5,24,0.00
2013-4-8,69,55,41,58,50,37,98,85,62,29.92,29.55,28,8,43,0.56
2013-4-9,68,52,44,63,50,42,96,92,81,29.92,29.78,19,9,24,0.12
2013-4-10,42,40,40,40,39,39,97,96,95,29.88,29.79,20,11,27,0.83
2013-4-11,49,42,38,48,42,36,98,96,92,29.79,29.58,24,8,33,0.10
2013-4-12,43,38,35,40,35,32,96,88,80,29.90,29.59,16,8,29,0.05
2013-4-13,46,39,34,37,33,29,91,79,60,29.99,29.88,16,7,23,0.00
2013-4-14,73,54,38,55,44,35,88,72,47,29.99,29.59,24,12,32,0.00
2013-4-15,63,53,42,57,49,40,99,87,61,29.99,29.62,25,6,43,0.42
2013-4-16,52,45,35,43,38,33,94,79,59,30.25,29.95,12,5,18,0.01
2013-4-17,49,44,40,49,41,35,98,89,74,30.27,29.77,24,9,29,1.38
2013-4-18,60,51,37,60,50,34,100,96,84,29.77,29.40,25,10,36,1.64
2013-4-19,40,36,33,34,31,29,87,83,75,29.99,29.51,23,13,33,0.01
2013-4-20,47,37,29,33,28,24,94,74,45,30.40,29.99,13,4,17,0.00
2013-4-21,54,43,32,40,34,28,87,70,56,30.51,30.30,23,9,30,0.00
2013-4-22,66,52,38,46,40,34,87,66,42,30.31,30.01,17,8,23,0.00
2013-4-23,54,44,36,50,42,34,96,93,68,30.04,29.91,16,5,20,0.46
2013-4-24,50,41,33,36,33,29,97,75,49,30.13,29.97,14,5,20,0.05
2013-4-25,52,44,37,38,32,25,91,66,39,30.32,30.08,18,7,26,0.03
2013-4-26,66,52,38,51,41,29,88,68,52,30.33,30.23,20,8,28,0.00
2013-4-27,66,55,41,50,47,40,97,76,48,30.29,29.98,15,4,22,0.00
2013-4-28,67,57,51,56,52,49,95,82,60,29.98,29.81,8,2,10,0.00
2013-4-29,74,62,47,60,54,46,97,79,52,29.90,29.71,22,9,29,0.01
2013-4-30,85,70,58,63,58,54,96,68,36,29.89,29.72,22,10,30,0.00
2013-5-1,83,71,59,60,56,51,89,62,37,30.08,29.89,16,6,20,0.00
2013-5-2,66,53,44,56,48,42,95,84,69,30.21,30.07,19,10,24,0.22
2013-5-3,55,47,41,54,46,39,98,96,94,30.12,29.90,21,8,25,0.21
2013-5-4,72,59,52,58,54,50,97,84,58,30.03,29.91,15,5,25,0.01
2013-5-5,75,61,48,56,50,42,99,72,33,30.02,29.93,14,5,20,0.01
2013-5-6,75,62,53,51,45,36,84,57,26,30.03,29.94,16,5,22,0.00
2013-5-7,78,65,47,50,42,32,77,47,24,30.05,29.94,10,2,14,0.00
2013-5-8,80,68,54,54,48,41,74,51,28,30.01,29.92,8,1,12,0.00
2013-5-9,71,62,59,62,57,50,98,84,65,29.94,29.77,21,4,27,0.21
2013-5-10,61,50,45,60,48,44,98,94,87,29.99,29.75,18,8,23,0.01
2013-5-11,59,50,40,53,39,27,98,70,34,30.08,29.87,14,5,24,0.01
2013-5-12,56,46,37,34,29,25,71,52,32,30.16,30.08,13,3,18,0.00
2013-5-13,67,54,37,40,33,25,80,47,23,30.19,29.97,10,3,16,0.00
2013-5-14,92,72,53,62,53,40,75,53,22,29.97,29.61,15,7,22,0.00
2013-5-15,82,75,62,61,52,41,60,46,25,29.80,29.64,13,3,20,0.00
2013-5-16,84,71,54,52,47,42,76,45,24,29.91,29.80,14,4,20,0.00
2013-5-17,79,68,59,65,55,47,80,65,50,29.98,29.89,15,4,23,0.00
2013-5-18,60,59,59,53,53,53,80,80,78,29.96,29.95,6,2,10,0.00
2013-5-19,89,80,66,68,65,58,91,63,46,29.89,29.67,18,8,26,0.06
2013-5-20,84,74,63,70,62,58,96,70,43,29.76,29.61,19,7,26,0.52
2013-5-21,79,70,62,67,62,60,96,78,54,29.66,29.61,17,7,26,0.04
2013-5-22,73,65,60,64,59,55,96,83,61,29.74,29.58,12,4,20,0.18
2013-5-23,60,55,44,57,51,41,97,87,70,30.27,29.74,21,8,28,0.09
2013-5-24,64,51,35,47,39,33,93,68,40,30.46,30.27,12,4,16,0.00
2013-5-25,56,50,45,48,42,37,88,75,57,30.40,30.27,10,3,16,0.12
2013-5-26,59,52,43,55,48,40,95,85,72,30.28,30.08,13,5,20,0.33
2013-5-27,68,61,55,64,59,54,98,94,87,30.09,29.80,14,5,20,0.21
2013-5-28,76,68,62,72,66,61,99,93,84,29.82,29.64,19,6,26,0.47
2013-5-29,84,72,64,73,66,62,93,82,60,29.90,29.70,17,9,23,0.14
2013-5-30,84,73,62,73,67,61,98,84,65,29.86,29.68,25,11,37,0.89
2013-5-31,73,67,62,69,65,61,98,92,78,29.81,29.66,16,8,23,0.16
2013-6-1,76,67,62,68,64,58,95,88,74,29.72,29.62,15,7,23,0.37
2013-6-2,62,57,50,60,52,46,97,84,73,30.03,29.72,12,4,18,0.00
2013-6-3,68,58,47,55,49,45,96,74,52,30.12,30.02,8,2,10,0.00
2013-6-4,72,62,51,55,50,45,89,66,48,30.15,30.02,12,4,18,0.00
2013-6-5,67,60,56,60,54,49,92,81,69,30.07,29.89,11,4,16,0.06
2013-6-6,69,60,55,61,55,51,95,85,70,29.93,29.84,10,4,13,0.36
2013-6-7,71,61,53,58,52,47,90,74,49,29.93,29.88,13,6,18,0.00
2013-6-8,75,65,49,54,48,41,83,56,38,29.96,29.91,8,2,13,0.00
2013-6-9,82,72,57,62,55,46,81,58,41,29.95,29.76,19,9,26,0.00
2013-6-10,79,74,63,67,61,57,99,65,47,29.85,29.76,12,5,16,0.00
2013-6-11,85,74,60,69,64,58,95,73,42,29.90,29.75,11,2,16,0.00
2013-6-12,90,75,66,75,69,64,95,84,55,29.86,29.54,25,5,32,0.57
2013-6-13,78,70,61,64,60,56,97,75,47,30.00,29.60,16,6,20,0.16
2013-6-14,77,66,53,62,57,51,93,74,52,30.11,29.96,9,3,12,0.00
2013-6-15,82,70,61,72,64,56,92,82,64,30.02,29.82,22,5,36,0.03
2013-6-16,84,74,66,69,64,58,93,75,47,29.90,29.83,12,3,21,0.00
2013-6-17,87,76,64,65,60,54,89,62,36,29.92,29.82,20,2,24,0.18
2013-6-18,76,66,56,63,58,51,93,75,57,30.04,29.86,13,5,17,0.01
2013-6-19,80,67,51,63,56,48,90,69,47,30.10,30.02,9,3,13,0.00
2013-6-20,88,75,59,68,61,53,80,63,45,30.10,29.99,11,4,16,0.00
2013-6-21,81,72,67,71,66,61,95,83,68,30.12,29.92,22,8,29,1.07
2013-6-22,81,73,67,76,69,64,96,88,75,30.09,29.90,16,6,21,0.07
2013-6-23,87,73,66,75,68,64,95,86,65,30.00,29.88,14,5,20,0.31
2013-6-24,84,70,66,75,67,64,97,91,67,30.06,29.84,28,5,38,0.68
2013-6-25,84,74,66,76,71,65,98,90,77,29.93,29.76,14,4,20,0.25
2013-6-26,73,71,70,71,69,68,97,94,88,29.78,29.68,8,5,12,0.00
2013-6-29,68,64,61,65,62,58,97,92,80,29.76,29.62,16,7,20,0.75
2013-6-30,78,67,59,66,58,50,93,75,52,29.97,29.76,18,9,23,0.00
2013-7-1,76,66,55,58,54,50,85,66,44,30.05,29.96,17,8,23,0.00
2013-7-2,74,64,55,59,54,47,92,74,41,30.07,30.01,14,5,20,0.00
2013-7-3,70,63,54,63,58,53,97,86,74,30.06,30.00,7,1,9,0.00
2013-7-4,83,71,57,68,62,56,98,77,46,30.07,29.98,10,3,15,0.01
2013-7-5,84,77,64,69,65,61,90,68,47,30.05,29.96,12,5,15,0.00
2013-7-6,84,74,60,71,66,59,97,78,55,30.02,29.93,9,3,12,0.00
2013-7-7,88,78,68,75,70,66,95,78,59,29.97,29.90,11,4,14,0.00
2013-7-8,87,78,70,78,73,68,95,83,68,29.99,29.89,13,5,20,0.28
2013-7-9,84,78,73,79,75,71,96,90,78,29.98,29.82,16,3,26,0.56
2013-7-10,82,76,63,76,69,60,95,81,63,29.97,29.80,12,3,17,0.00
2013-7-11,79,69,59,63,60,55,94,73,47,30.08,29.97,13,3,15,0.00
2013-7-12,80,70,58,64,57,47,86,64,42,30.13,30.04,5,1,8,0.00
2013-7-13,82,71,58,66,62,55,96,74,48,30.13,30.05,9,2,15,0.00
2013-7-14,86,76,65,74,69,62,95,79,63,30.16,30.09,8,2,12,0.00
2013-7-15,88,78,70,77,72,67,95,82,62,30.22,30.14,8,2,12,0.00
2013-7-16,90,80,73,78,74,72,95,85,64,30.26,30.19,8,3,12,0.00
2013-7-17,91,88,82,78,76,74,79,68,58,30.26,30.14,8,2,12,0.00
2013-7-18,92,83,74,79,75,70,91,77,57,30.14,29.91,11,2,15,0.00
2013-7-19,92,82,73,76,73,67,93,75,55,29.91,29.72,15,5,26,0.00
2013-7-20,84,76,67,70,66,62,89,73,54,29.89,29.77,9,2,12,0.00
2013-7-21,86,74,64,72,67,62,96,80,58,29.91,29.81,11,4,14,0.00
2013-7-22,86,76,63,73,68,62,98,78,59,29.84,29.70,9,2,21,0.09
2013-7-23,76,69,58,68,62,55,96,80,58,29.94,29.66,14,4,18,0.06
2013-7-24,70,62,52,59,55,51,97,79,62,30.04,29.94,10,3,13,0.01
2013-7-25,80,68,56,62,58,52,86,70,52,30.09,30.00,10,3,14,0.00
2013-7-26,74,66,60,69,63,56,97,88,68,30.00,29.85,15,4,22,0.22
2013-7-27,64,58,52,57,52,47,95,81,61,29.93,29.87,8,2,14,0.00
2013-7-28,70,60,52,55,51,47,87,74,56,30.03,29.88,9,2,16,0.00
2013-7-29,77,64,50,61,56,48,95,77,57,30.14,30.03,8,1,13,0.00
2013-7-30,67,63,57,64,61,55,98,93,85,30.14,30.03,9,3,17,0.11
2013-7-31,76,68,64,68,65,62,99,92,74,30.03,29.93,8,2,10,0.06
2013-8-1,78,69,60,63,59,54,98,72,46,29.99,29.91,9,1,17,0.00
2013-8-2,84,73,62,72,66,58,91,77,61,29.92,29.81,10,3,15,0.00
2013-8-3,78,69,60,63,58,51,87,70,43,30.09,29.92,11,3,15,0.00
2013-8-4,78,67,55,60,56,51,91,70,41,30.18,30.07,8,2,12,0.00
2013-8-5,73,65,58,66,61,55,97,88,75,30.08,29.84,20,4,28,0.36
2013-8-6,84,74,66,75,70,64,99,89,71,29.88,29.78,11,4,15,0.00
2013-8-7,85,76,65,76,70,63,98,83,60,29.91,29.75,8,3,13,0.00
2013-8-8,78,69,62,67,64,56,97,83,65,29.99,29.91,8,2,13,0.00
2013-8-9,81,70,58,69,62,52,96,75,62,30.02,29.95,7,2,11,0.09
2013-8-10,78,68,59,65,60,57,94,77,49,30.12,30.02,6,1,12,0.00
2013-8-11,82,70,57,68,62,54,91,76,56,30.11,30.00,10,2,15,0.00
2013-8-12,82,72,63,71,66,60,93,80,63,30.01,29.84,10,3,14,0.00
2013-8-13,71,62,53,60,53,48,96,74,47,30.13,29.92,13,5,18,0.00
2013-8-14,73,62,49,56,52,46,92,71,48,30.22,30.12,10,2,12,0.00
2013-8-15,73,64,53,60,54,49,89,73,51,30.17,30.08,6,1,8,0.00
2013-8-16,80,66,54,62,56,51,93,72,44,30.16,30.11,9,2,12,0.00
2013-8-17,81,68,55,62,56,52,90,70,44,30.21,30.12,9,2,13,0.00
2013-8-18,81,68,55,63,59,53,96,73,46,30.19,30.07,8,1,12,0.00
2013-8-19,83,71,57,68,62,54,93,75,56,30.10,30.00,8,2,12,0.00
2013-8-20,86,74,64,70,66,62,96,78,52,30.08,29.99,12,4,15,0.00
2013-8-21,88,76,67,71,68,64,94,77,53,30.05,29.94,11,4,20,0.07
2013-8-22,74,69,64,69,67,62,97,92,82,30.13,29.96,13,3,20,0.71
2013-8-23,81,69,59,68,61,54,99,79,49,30.15,30.07,9,2,14,0.01
2013-8-24,84,72,59,71,64,54,92,78,59,30.22,30.14,10,4,14,0.00
2013-8-25,87,76,65,74,68,61,89,77,61,30.21,30.10,11,5,16,0.00
2013-8-26,89,77,66,77,71,63,91,81,64,30.12,29.96,8,3,13,0.00
2013-8-27,92,81,72,77,73,68,94,78,57,29.97,29.81,13,5,20,0.00
2013-8-28,86,79,69,78,72,67,95,80,65,29.98,29.81,12,4,18,0.00
2013-8-29,85,74,66,74,70,66,98,87,66,30.05,29.94,8,2,12,0.00
2013-8-30,94,79,69,79,72,68,95,81,54,29.94,29.71,16,4,26,0.19
2013-8-31,81,73,67,73,70,66,97,90,76,29.80,29.73,9,3,14,0.00
2013-9-1,86,73,60,76,68,59,99,84,69,29.80,29.69,10,2,14,0.01
2013-9-2,77,67,56,66,60,54,96,81,57,29.97,29.80,10,3,14,0.00
2013-9-3,76,63,52,62,56,51,97,80,52,30.08,29.97,6,1,10,0.01
2013-9-4,84,68,53,62,57,51,95,71,39,30.12,30.02,7,1,10,0.00
2013-9-5,77,70,59,68,62,52,88,76,60,30.19,30.14,8,3,13,0.00
2013-9-6,86,71,60,69,61,52,85,72,53,30.18,29.98,10,4,15,0.00
2013-9-7,88,75,64,71,66,62,92,77,53,29.98,29.84,10,4,16,0.08
2013-9-8,81,74,69,72,69,67,94,84,74,29.96,29.87,9,4,16,0.00
2013-9-9,94,79,67,77,72,66,98,80,57,29.90,29.77,12,4,15,0.00
2013-9-10,94,81,69,72,67,64,84,66,38,29.97,29.85,14,5,24,0.00
2013-9-11,91,77,70,72,68,65,92,75,52,30.00,29.95,9,3,17,0.00
2013-9-12,79,69,56,68,58,50,96,70,39,30.06,29.95,14,3,20,0.00
2013-9-13,68,56,47,51,44,37,92,67,33,30.18,30.06,14,5,20,0.00
2013-9-14,72,58,43,50,46,42,96,68,38,30.18,30.00,11,3,16,0.00
2013-9-15,60,57,54,58,53,46,97,88,69,30.16,29.95,11,4,15,0.97
2013-9-16,66,56,46,54,50,44,97,82,56,30.35,30.16,14,7,18,0.00
2013-9-17,69,58,44,58,52,43,97,83,65,30.31,30.08,11,3,15,0.01
2013-9-18,76,66,59,70,62,55,95,86,74,30.08,29.87,12,4,16,0.49
2013-9-19,90,77,67,73,69,65,98,79,52,29.90,29.71,13,6,21,0.05
2013-9-20,70,65,56,66,60,53,97,86,63,29.84,29.71,13,3,20,0.23
2013-9-21,67,57,48,53,50,45,97,80,54,29.95,29.82,8,1,13,0.01
2013-9-22,68,55,44,52,47,42,95,78,50,30.06,29.94,8,2,10,0.00
2013-9-23,71,57,46,54,49,44,93,77,50,30.10,29.99,8,4,14,0.00
2013-9-24,73,60,49,56,51,46,92,75,48,30.01,29.89,11,4,20,0.00
2013-9-25,74,60,47,55,51,46,96,76,44,29.95,29.88,8,2,13,0.00
2013-9-26,78,63,51,58,54,50,97,75,46,30.04,29.94,10,3,14,0.01
2013-9-27,82,66,51,58,52,48,93,65,32,30.13,30.00,14,4,20,0.00
2013-9-28,82,66,53,66,58,51,96,77,50,30.02,29.85,21,6,30,0.08
2013-9-29,70,58,49,57,49,42,98,75,38,30.06,29.94,13,2,17,0.01
2013-9-30,76,61,48,55,49,45,95,70,40,29.99,29.84,14,4,20,0.00
2013-10-1,81,67,56,66,61,54,99,84,58,29.95,29.86,15,5,23,0.01
2013-10-2,81,69,60,65,58,41,98,72,33,30.05,29.93,10,3,16,0.00
2013-10-3,77,69,63,70,66,60,98,91,74,29.93,29.80,13,5,17,0.27
2013-10-4,74,69,63,70,67,61,97,92,83,29.95,29.86,8,2,12,0.01
2013-10-5,77,69,57,72,66,53,98,92,83,29.89,29.73,11,4,18,0.09
2013-10-6,58,50,43,53,43,39,95,79,54,29.79,29.71,13,4,20,0.05
2013-10-7,69,54,42,52,46,41,97,76,46,30.07,29.79,10,3,20,0.01
2013-10-8,76,61,47,54,48,44,92,66,35,30.17,30.07,13,4,18,0.00
2013-10-9,73,58,45,51,46,42,95,68,34,30.22,30.10,11,3,15,0.00
2013-10-10,76,60,46,58,52,44,94,76,48,30.16,30.01,11,3,15,0.00
2013-10-11,78,64,54,61,55,51,94,76,46,30.03,29.89,17,5,24,0.00
2013-10-12,70,61,48,62,53,41,95,76,42,30.19,29.90,11,4,18,0.05
2013-10-13,64,51,40,45,38,33,87,64,33,30.40,30.19,10,2,15,0.00
2013-10-14,65,52,39,47,43,36,95,74,45,30.41,30.09,11,4,17,0.00
2013-10-15,67,55,46,62,50,42,97,84,70,30.09,29.76,14,5,21,0.19
2013-10-16,52,49,42,46,45,40,93,86,80,29.97,29.85,12,5,20,0.00
2013-10-17,51,47,46,47,46,45,97,96,87,29.94,29.89,8,3,13,0.16
2013-10-18,45,44,44,40,39,38,86,82,79,29.99,29.96,6,3,10,0.16
2013-10-19,55,44,35,40,37,33,92,76,48,29.96,29.80,14,4,22,0.01
2013-10-20,63,50,36,47,42,35,95,76,55,29.89,29.72,15,4,22,0.00
2013-10-21,55,43,32,46,32,25,86,68,48,30.00,29.82,16,3,23,0.00
2013-10-22,38,33,28,36,31,25,97,90,72,30.02,29.93,6,1,8,0.18
2013-10-23,43,37,30,34,31,29,97,82,65,30.07,29.97,10,1,17,0.01
2013-10-24,41,36,30,34,28,24,92,75,56,30.35,30.06,8,1,15,0.00
2013-10-25,52,39,27,35,28,23,90,67,43,30.45,30.07,13,4,22,0.00
2013-10-26,53,44,36,38,32,28,75,62,49,30.10,29.90,14,4,23,0.00
2013-10-27,55,42,30,36,31,26,88,67,42,30.10,29.98,11,2,20,0.00
2013-10-28,58,44,33,45,37,29,90,77,56,30.36,30.07,12,4,17,0.00
2013-10-29,55,45,34,46,40,32,96,83,61,30.35,30.13,10,4,16,0.00
2013-10-30,59,52,48,59,52,46,99,98,91,30.13,29.76,10,3,14,1.16
2013-10-31,62,56,43,61,55,41,100,98,92,29.76,29.25,15,5,26,0.56
2013-11-1,46,44,42,44,42,40,96,92,88,29.77,29.43,12,5,21,0.03
2013-11-2,48,41,34,41,37,31,97,88,68,30.17,29.76,9,1,15,0.01
2013-11-3,51,41,31,40,35,29,97,81,57,30.32,30.16,13,4,17,0.00
2013-11-4,56,48,40,46,42,36,87,78,61,30.24,30.07,21,8,30,0.00
2013-11-5,53,51,48,52,49,45,97,93,83,30.25,29.92,19,8,27,0.13
2013-11-6,56,45,32,55,43,28,98,91,76,30.21,29.79,19,5,25,0.95
2013-11-7,42,33,28,37,30,25,95,88,78,30.28,30.21,11,3,18,0.00
2013-11-8,49,39,27,37,32,25,93,77,46,30.35,29.91,18,7,25,0.01
2013-11-9,57,49,39,43,39,32,80,71,58,30.16,29.87,18,9,32,0.00
2013-11-10,47,39,30,35,32,28,90,76,58,30.38,30.16,11,3,16,0.00
2013-11-11,47,36,21,37,31,17,95,82,67,30.57,30.10,19,8,26,0.03
2013-11-12,30,23,18,22,18,14,87,80,68,30.77,30.57,9,4,13,0.01
2013-11-13,40,29,16,23,19,13,89,69,45,30.65,30.19,17,7,25,1.00
2013-11-14,52,39,30,32,26,22,75,61,44,30.19,29.95,18,7,25,0.00
2013-11-15,50,40,32,38,32,26,90,75,55,29.99,29.91,13,6,20,0.00
2013-11-16,58,50,37,56,49,34,97,95,89,29.92,29.55,24,13,34,0.30
2013-11-17,66,53,41,63,51,37,98,92,83,29.78,29.10,36,13,45,0.38
2013-11-18,42,37,29,38,31,25,90,80,62,30.29,29.78,20,9,30,0.00
2013-11-19,40,32,23,31,27,21,94,83,65,30.39,30.27,10,4,14,0.00
2013-11-20,40,36,30,37,32,27,96,89,74,30.29,30.08,16,7,22,0.22
2013-11-21,46,42,38,44,40,37,97,94,90,30.24,30.10,9,3,12,0.01
2013-11-22,40,33,24,39,30,20,96,89,79,30.51,30.23,16,7,21,0.01
2013-11-23,23,20,12,21,13,7,91,76,56,30.77,30.49,19,7,24,0.00
2013-11-24,26,18,8,14,9,4,87,69,44,30.79,30.42,12,5,16,0.00
2013-11-25,31,27,18,29,22,13,93,81,62,30.42,30.11,18,8,26,0.00
2013-11-26,32,27,15,28,22,8,93,81,66,30.24,30.07,17,6,22,0.00
2013-11-27,26,18,10,17,11,5,81,73,60,30.33,30.23,12,4,17,0.00
2013-11-28,33,24,19,20,17,14,86,73,59,30.54,30.21,11,4,16,0.00
2013-11-29,34,26,15,24,19,12,89,75,56,30.66,30.41,13,4,18,0.00
2013-11-30,49,36,25,35,29,22,91,78,56,30.41,30.07,14,6,20,0.00
2013-12-1,43,34,28,34,30,26,94,84,66,30.14,29.99,10,2,12,0.00
2013-12-2,41,36,32,35,32,30,95,87,73,29.99,29.71,11,4,18,0.04
2013-12-3,46,41,36,46,41,35,99,98,95,29.72,29.64,15,4,20,0.01
2013-12-4,52,45,30,52,45,30,100,100,99,29.74,29.48,18,6,26,0.05
2013-12-5,30,22,18,30,18,13,99,83,75,30.33,29.73,20,9,27,0.00
2013-12-6,18,15,10,13,9,5,83,79,71,30.63,30.30,11,5,14,0.00
2013-12-7,18,11,6,8,5,2,86,78,61,30.77,30.63,9,3,12,0.00
2013-12-8,22,19,11,21,15,7,95,87,74,30.67,30.01,14,6,22,0.00
2013-12-9,22,12,-4,21,9,-8,95,86,75,30.29,30.00,16,7,21,0.00
2013-12-10,20,11,-4,14,6,-8,86,78,72,30.36,30.09,22,7,32,0.00
2013-12-11,17,10,-4,15,6,-8,93,83,66,30.64,30.32,10,3,15,0.00
2013-12-12,20,10,-5,14,5,-10,89,81,72,30.62,30.28,16,4,23,0.00
2013-12-13,28,21,12,26,18,9,95,87,81,30.28,30.10,11,5,16,0.01
2013-12-14,29,26,16,28,24,15,97,95,92,30.12,29.96,15,7,20,0.00
2013-12-15,18,12,9,16,8,6,92,84,80,30.18,30.01,15,6,22,0.00
2013-12-16,18,12,5,14,8,1,90,85,78,30.19,30.06,10,4,12,0.00
2013-12-17,33,25,18,28,22,17,96,88,73,30.16,30.02,18,8,23,0.04
2013-12-18,32,28,19,29,23,15,88,80,69,30.16,29.86,21,9,28,0.00
2013-12-19,38,34,29,35,32,26,98,92,85,29.93,29.79,9,4,14,0.24
2013-12-20,34,32,27,33,31,26,98,98,97,29.85,29.75,15,6,20,0.09
2013-12-21,33,28,26,32,28,25,99,97,96,29.89,29.62,0,0,0,0.01
2013-12-22,33,28,20,32,26,18,98,95,92,30.18,29.62,8,1,12,0.03
2013-12-23,20,4,-3,18,1,-6,93,86,83,30.55,30.18,10,6,15,0.00
2013-12-24,18,5,-7,15,2,-10,90,86,82,30.66,30.38,14,5,18,0.00
2013-12-25,26,23,18,24,21,15,96,91,84,30.39,30.16,13,6,18,0.00
2013-12-26,34,25,14,31,22,12,92,88,82,30.32,30.18,12,6,17,0.01
2013-12-27,36,27,22,32,25,20,96,92,84,30.32,30.19,9,2,12,0.02
2013-12-28,44,37,29,37,32,28,94,86,74,30.12,29.94,11,6,17,0.08
2013-12-29,35,26,6,31,23,2,96,89,81,30.26,29.80,15,7,21,0.00
2013-12-30,9,3,-3,4,-1,-8,89,81,75,30.39,30.25,9,2,13,0.00
2013-12-31,11,6,-2,8,4,-5,89,88,85,30.43,30.27,17,4,20,0.00
2014-1-1,19,13,10,17,11,8,93,91,88,30.33,30.24,21,13,26,0.00
2014-1-2,13,8,-2,11,6,-4,91,88,86,30.50,30.22,22,9,26,0.00